Time;durP1;ratioP1;P1;durP2;ratioP2;P2;SDS_P1;SDS_P2;PMS_P1;PMS_P2;Temp;Humidity;BMP_temperature;BMP_pressure;BME280_temperature;BME280_humidity;BME280_pressure;Samples;Min_cycle;Max_cycle;Signal;HPM_P1;HPM_P2
2022/11/01 00:01:58;;;;;;;5.15;2.80;;;16.60;69.10;;;;;;2484204;52;21265;-72
2022/11/01 00:04:25;;;;;;;5.18;2.85;;;16.60;69.10;;;;;;2464527;52;21347;-72
2022/11/01 00:06:52;;;;;;;5.47;3.00;;;16.60;69.10;;;;;;2367739;53;20922;-73
2022/11/01 00:09:18;;;;;;;6.32;3.22;;;16.60;69.10;;;;;;2408555;52;20990;-71
2022/11/01 00:11:45;;;;;;;6.43;3.00;;;16.60;69.10;;;;;;2404121;52;20933;-72
2022/11/01 00:14:12;;;;;;;4.78;2.53;;;16.60;69.10;;;;;;2497329;52;20986;-71
2022/11/01 00:16:39;;;;;;;6.65;2.92;;;16.60;69.10;;;;;;2381820;52;21328;-72
2022/11/01 00:19:06;;;;;;;5.90;2.58;;;16.60;69.10;;;;;;2507598;52;20986;-72
2022/11/01 00:21:32;;;;;;;11.55;3.10;;;16.60;69.20;;;;;;2356576;53;21045;-72
2022/11/01 00:23:58;;;;;;;7.85;3.45;;;16.50;69.10;;;;;;2567439;52;20910;-72
2022/11/01 00:26:25;;;;;;;7.62;3.92;;;16.50;69.30;;;;;;2367912;53;20978;-72
2022/11/01 00:28:51;;;;;;;6.32;3.20;;;16.60;69.40;;;;;;2366305;53;21445;-72
2022/11/01 00:31:18;;;;;;;6.37;2.85;;;16.60;69.40;;;;;;2586859;52;21059;-72
2022/11/01 00:33:45;;;;;;;6.53;3.08;;;16.50;69.40;;;;;;2348677;54;21011;-72
2022/11/01 00:36:11;;;;;;;4.90;2.60;;;16.60;69.50;;;;;;2369539;53;21034;-73
2022/11/01 00:38:38;;;;;;;5.57;3.22;;;16.60;69.60;;;;;;2558703;52;21634;-73
2022/11/01 00:41:04;;;;;;;5.78;3.03;;;16.60;69.50;;;;;;2343607;53;21547;-73
2022/11/01 00:43:31;;;;;;;4.53;2.65;;;16.60;69.50;;;;;;2526048;52;20939;-72
2022/11/01 00:45:58;;;;;;;6.47;2.90;;;16.60;69.40;;;;;;2344700;53;21510;-73
2022/11/01 00:48:25;;;;;;;6.43;2.60;;;16.60;69.40;;;;;;2412960;52;21046;-72
2022/11/01 00:50:52;;;;;;;4.28;2.55;;;16.60;69.50;;;;;;2481455;52;21063;-72
2022/11/01 00:53:18;;;;;;;5.07;2.65;;;16.70;69.60;;;;;;2373971;52;20950;-71
2022/11/01 00:55:44;;;;;;;4.45;2.55;;;16.70;69.70;;;;;;2376130;52;21522;-72
2022/11/01 00:58:11;;;;;;;7.80;2.90;;;16.60;69.70;;;;;;2387066;52;21458;-72
2022/11/01 01:00:38;;;;;;;6.87;2.62;;;16.60;69.80;;;;;;2367775;53;21370;-71
2022/11/01 01:03:04;;;;;;;5.75;2.60;;;16.70;69.90;;;;;;2619524;52;20955;-72
2022/11/01 01:05:32;;;;;;;6.05;2.28;;;16.70;70.00;;;;;;2367783;53;21017;-72
2022/11/01 01:07:58;;;;;;;6.75;2.87;;;16.70;70.00;;;;;;2463234;52;20990;-72
2022/11/01 01:10:25;;;;;;;3.75;2.20;;;16.80;70.10;;;;;;2367061;53;21567;-72
2022/11/01 01:12:51;;;;;;;5.00;2.30;;;16.80;70.10;;;;;;2367440;53;20929;-72
2022/11/01 01:15:18;;;;;;;4.43;2.28;;;16.80;70.10;;;;;;2367737;53;21002;-72
2022/11/01 01:17:44;;;;;;;5.18;2.37;;;16.80;70.10;;;;;;2518444;52;21771;-73
2022/11/01 01:20:13;;;;;;;5.25;2.40;;;16.80;70.10;;;;;;2368325;53;21223;-73
2022/11/01 01:22:40;;;;;;;5.68;2.67;;;16.80;70.10;;;;;;2620610;52;20966;-73
2022/11/01 01:25:08;;;;;;;4.30;2.60;;;16.90;70.20;;;;;;2367199;53;21320;-72
2022/11/01 01:27:35;;;;;;;4.70;2.83;;;16.90;70.10;;;;;;2368060;53;21018;-73
2022/11/01 01:30:02;;;;;;;7.72;3.22;;;16.90;70.20;;;;;;2367367;53;21006;-72
2022/11/01 01:32:28;;;;;;;5.75;2.85;;;16.90;70.20;;;;;;2367811;53;21514;-72
2022/11/01 01:34:55;;;;;;;6.20;3.25;;;16.90;70.30;;;;;;2367359;53;20935;-72
2022/11/01 01:37:21;;;;;;;4.82;3.05;;;17.00;70.40;;;;;;2367555;53;21417;-72
2022/11/01 01:39:47;;;;;;;5.43;2.92;;;17.00;70.40;;;;;;2367672;53;20962;-73
2022/11/01 01:42:31;;;;;;;5.70;3.40;;;17.00;70.30;;;;;;2619526;52;21246;-71
2022/11/01 01:45:15;;;;;;;7.45;3.20;;;17.10;70.30;;;;;;2361639;53;20922;-72
2022/11/01 01:47:43;;;;;;;7.18;2.70;;;17.10;70.20;;;;;;2497563;52;21463;-72
2022/11/01 01:50:56;;;;;;;6.90;3.53;;;17.10;70.40;;;;;;2414392;52;21397;-72
2022/11/01 01:53:29;;;;;;;5.82;2.75;;;17.10;70.20;;;;;;2365932;53;20902;-72
2022/11/01 01:56:15;;;;;;;4.87;2.80;;;17.20;70.40;;;;;;2367325;53;20926;-73
2022/11/01 01:58:53;;;;;;;4.53;2.47;;;17.20;70.20;;;;;;2366798;53;20923;-72
2022/11/01 02:01:20;;;;;;;5.68;3.08;;;17.20;70.40;;;;;;2607915;52;21364;-72
2022/11/01 02:03:46;;;;;;;5.95;2.37;;;17.20;70.50;;;;;;2443245;52;20938;-73
2022/11/01 02:06:17;;;;;;;4.00;2.45;;;17.20;70.40;;;;;;2367692;53;20930;-71
2022/11/01 02:08:46;;;;;;;5.72;2.92;;;17.20;70.30;;;;;;2548939;52;21329;-73
2022/11/01 02:11:13;;;;;;;4.95;2.72;;;17.20;70.30;;;;;;2354475;53;21282;-71
2022/11/01 02:13:40;;;;;;;5.53;2.65;;;17.30;70.40;;;;;;2373696;53;20928;-72
2022/11/01 02:18:14;;;;;;;5.00;2.80;;;17.30;70.50;;;;;;2339019;53;21440;-72
2022/11/01 02:23:25;;;;;;;4.87;2.60;;;17.30;70.20;;;;;;2594433;52;21020;-72
2022/11/01 02:27:13;;;;;;;4.93;2.47;;;17.30;70.20;;;;;;2340228;53;21012;-72
2022/11/01 02:30:22;;;;;;;6.18;2.90;;;17.40;70.10;;;;;;2339860;53;21108;-72
2022/11/01 02:33:01;;;;;;;4.95;2.67;;;17.40;70.10;;;;;;2339851;53;21043;-73
2022/11/01 02:36:06;;;;;;;6.93;3.20;;;17.40;70.30;;;;;;2354230;53;20944;-72
2022/11/01 02:38:45;;;;;;;6.10;2.53;;;17.40;70.30;;;;;;2348025;52;20924;-72
2022/11/01 02:41:29;;;;;;;6.57;2.67;;;17.40;70.50;;;;;;2455734;52;20971;-71
2022/11/01 02:44:02;;;;;;;5.30;2.22;;;17.40;70.60;;;;;;2366790;53;21707;-72
2022/11/01 02:49:21;;;;;;;3.78;2.08;;;17.40;70.80;;;;;;2342985;53;21033;-71
2022/11/01 02:51:48;;;;;;;4.82;2.22;;;17.50;71.20;;;;;;2346660;53;21075;-73
2022/11/01 02:55:06;;;;;;;5.40;2.12;;;17.50;71.30;;;;;;2340406;53;20941;-72
2022/11/01 02:57:36;;;;;;;4.68;2.03;;;17.60;71.40;;;;;;2359974;53;21596;-72
2022/11/01 03:00:23;;;;;;;5.40;2.25;;;17.70;71.70;;;;;;2339572;53;20972;-72
2022/11/01 03:02:56;;;;;;;5.10;1.92;;;17.70;71.50;;;;;;2340242;53;20945;-73
2022/11/01 03:05:25;;;;;;;;;;;17.80;71.90;;;;;;2342002;53;21405;-73
2022/11/01 03:07:55;;;;;;;6.68;1.67;;;17.90;71.40;;;;;;2339452;53;20125;-73
2022/11/01 03:10:21;;;;;;;7.37;1.80;;;18.00;71.90;;;;;;2339854;53;21174;-72
2022/11/01 03:12:57;;;;;;;4.95;2.37;;;18.00;71.90;;;;;;2476180;52;20953;-73
2022/11/01 03:15:27;;;;;;;4.10;1.87;;;18.10;71.80;;;;;;2341356;53;21489;-72
2022/11/01 03:18:12;;;;;;;3.12;1.77;;;18.20;71.90;;;;;;2336766;53;20974;-72
2022/11/01 03:20:48;;;;;;;5.00;2.05;;;18.30;71.70;;;;;;2334118;53;21033;-72
2022/11/01 03:23:17;;;;;;;7.12;1.90;;;18.30;71.90;;;;;;2317791;53;21871;-74
2022/11/01 03:25:49;;;;;;;3.62;1.60;;;18.40;71.80;;;;;;2340343;53;21003;-74
2022/11/01 03:28:33;;;;;;;4.03;1.85;;;18.40;71.70;;;;;;2362827;54;20918;-73
2022/11/01 03:31:07;;;;;;;5.68;1.62;;;18.50;71.60;;;;;;2348424;53;21442;-72
2022/11/01 03:33:35;;;;;;;5.37;1.90;;;18.60;71.60;;;;;;2361071;53;21551;-73
2022/11/01 03:36:03;;;;;;;3.72;1.48;;;18.60;71.60;;;;;;2540130;52;20934;-73
2022/11/01 03:38:31;;;;;;;3.22;1.48;;;18.70;71.70;;;;;;2343685;53;21001;-74
2022/11/01 03:41:02;;;;;;;3.00;1.35;;;18.70;71.60;;;;;;2336990;53;20946;-73
2022/11/01 03:43:29;;;;;;;7.03;1.50;;;18.80;71.60;;;;;;2351609;53;21324;-73
2022/11/01 03:45:55;;;;;;;3.72;1.10;;;18.80;71.60;;;;;;2354061;54;21017;-74
2022/11/01 03:48:22;;;;;;;2.75;1.10;;;18.80;71.50;;;;;;2362871;54;20942;-74
2022/11/01 03:50:49;;;;;;;3.15;1.17;;;18.80;71.40;;;;;;2359922;54;20934;-74
2022/11/01 03:53:16;;;;;;;5.43;1.20;;;18.80;71.40;;;;;;2363200;54;21460;-74
2022/11/01 03:55:43;;;;;;;3.62;1.17;;;18.90;71.50;;;;;;2360613;54;20926;-75
2022/11/01 03:58:09;;;;;;;2.50;1.10;;;18.90;71.40;;;;;;2362009;54;21040;-75
2022/11/01 04:00:38;;;;;;;3.25;1.00;;;18.90;71.40;;;;;;2352339;52;21496;-75
2022/11/01 04:03:04;;;;;;;3.87;1.45;;;18.90;71.40;;;;;;2336656;53;21513;-74
2022/11/01 04:05:31;;;;;;;2.90;1.20;;;18.90;71.40;;;;;;2380283;53;21889;-75
2022/11/01 04:07:57;;;;;;;2.90;0.93;;;18.90;71.40;;;;;;2349712;54;20974;-74
2022/11/01 04:10:24;;;;;;;3.12;1.08;;;18.90;71.50;;;;;;2362767;54;21408;-74
2022/11/01 04:12:50;;;;;;;2.15;0.95;;;18.90;71.70;;;;;;2392041;52;20989;-75
2022/11/01 04:21:14;;;;;;;2.75;1.08;;;18.90;72.40;;;;;;2449810;52;20946;-74
2022/11/01 04:23:41;;;;;;;2.45;1.10;;;18.90;72.70;;;;;;2421660;52;20958;-75
2022/11/01 04:26:10;;;;;;;2.85;1.00;;;18.90;73.10;;;;;;2362928;54;21426;-74
2022/11/01 04:28:36;;;;;;;2.70;1.10;;;18.80;73.10;;;;;;2363336;54;20922;-75
2022/11/01 04:31:03;;;;;;;2.28;0.93;;;18.80;73.30;;;;;;2340396;53;21060;-75
2022/11/01 04:33:29;;;;;;;4.65;1.40;;;18.80;73.50;;;;;;2355062;53;21630;-74
2022/11/01 04:35:56;;;;;;;4.07;1.25;;;18.80;73.60;;;;;;2336561;53;21028;-74
2022/11/01 04:38:22;;;;;;;4.30;1.42;;;18.80;73.70;;;;;;2357762;53;20954;-74
2022/11/01 04:40:49;;;;;;;3.25;1.33;;;18.80;73.80;;;;;;2364056;53;20934;-73
2022/11/01 04:43:15;;;;;;;2.92;1.12;;;18.80;73.90;;;;;;2351450;53;21588;-74
2022/11/01 04:45:41;;;;;;;4.85;1.30;;;18.80;74.10;;;;;;2397410;52;20990;-74
2022/11/01 04:48:14;;;;;;;4.28;1.20;;;18.80;74.20;;;;;;2426214;52;21037;-74
2022/11/01 04:50:40;;;;;;;2.55;1.00;;;18.80;74.40;;;;;;2353107;53;20993;-74
2022/11/01 04:53:07;;;;;;;3.10;1.10;;;18.80;74.50;;;;;;2347308;53;21660;-75
2022/11/01 04:55:34;;;;;;;2.83;1.12;;;18.80;74.60;;;;;;2364615;53;20922;-76
2022/11/01 04:58:00;;;;;;;2.83;1.20;;;18.80;74.70;;;;;;2367594;53;21562;-74
2022/11/01 05:00:26;;;;;;;2.62;0.90;;;18.80;74.80;;;;;;2365061;53;21009;-74
2022/11/01 05:03:00;;;;;;;2.45;1.10;;;18.80;74.90;;;;;;2615608;52;20918;-73
2022/11/01 05:05:26;;;;;;;2.62;1.08;;;18.80;74.70;;;;;;2488487;53;21060;-74
2022/11/01 05:08:08;;;;;;;4.57;0.90;;;18.80;74.90;;;;;;2443054;52;20925;-74
2022/11/01 05:10:35;;;;;;;3.00;1.10;;;18.80;74.70;;;;;;2340644;53;20940;-74
2022/11/01 05:13:02;;;;;;;2.65;1.00;;;18.80;75.00;;;;;;2339745;53;21281;-75
2022/11/01 05:15:29;;;;;;;3.00;0.90;;;18.80;75.00;;;;;;2340506;53;20932;-73
2022/11/01 05:17:55;;;;;;;2.08;0.90;;;18.80;75.10;;;;;;2427365;52;21336;-74
2022/11/01 05:20:22;;;;;;;2.12;0.80;;;18.80;75.20;;;;;;2340104;53;21278;-75
2022/11/01 05:22:48;;;;;;;2.70;0.73;;;18.80;75.20;;;;;;2423874;52;21004;-73
2022/11/01 05:25:16;;;;;;;2.10;0.80;;;18.80;75.30;;;;;;2407655;52;21388;-73
2022/11/01 05:27:42;;;;;;;1.70;0.70;;;18.80;75.30;;;;;;2340427;53;20963;-73
2022/11/01 05:30:10;;;;;;;3.60;0.77;;;18.80;75.40;;;;;;2339506;53;21719;-72
2022/11/01 05:32:36;;;;;;;2.10;0.88;;;18.90;75.50;;;;;;2340214;53;20925;-73
2022/11/01 05:35:03;;;;;;;1.40;0.60;;;18.90;75.50;;;;;;2339761;53;20967;-73
2022/11/01 05:37:30;;;;;;;2.83;0.93;;;18.90;75.60;;;;;;2536716;52;20925;-74
2022/11/01 05:39:56;;;;;;;2.25;0.80;;;18.90;75.60;;;;;;2339361;53;21008;-73
2022/11/01 05:42:23;;;;;;;1.95;0.77;;;18.90;75.60;;;;;;2339960;53;21963;-73
2022/11/01 05:44:49;;;;;;;1.62;0.60;;;18.90;75.70;;;;;;2338890;53;21459;-74
2022/11/01 05:47:16;;;;;;;1.95;0.80;;;18.90;75.70;;;;;;2455303;52;21041;-74
2022/11/01 05:49:42;;;;;;;2.17;0.80;;;18.90;75.70;;;;;;2340273;53;21022;-72
2022/11/01 05:52:09;;;;;;;2.40;0.90;;;18.90;75.70;;;;;;2339966;53;20942;-72
2022/11/01 05:54:35;;;;;;;1.90;0.70;;;18.90;75.70;;;;;;2340469;53;21006;-72
2022/11/01 05:57:04;;;;;;;1.17;0.60;;;18.90;75.80;;;;;;2335182;53;20947;-72
2022/11/01 05:59:30;;;;;;;4.43;0.80;;;18.90;75.80;;;;;;2438536;53;20966;-75
2022/11/01 06:01:56;;;;;;;1.50;0.68;;;18.90;75.90;;;;;;2278606;52;130083;-81
2022/11/01 06:04:23;;;;;;;2.90;0.80;;;18.90;75.80;;;;;;2505832;54;21041;-81
2022/11/01 06:06:49;;;;;;;1.50;0.70;;;18.90;75.80;;;;;;2511238;55;21045;-81
2022/11/01 06:09:16;;;;;;;1.77;0.70;;;18.90;75.80;;;;;;2507804;55;20923;-81
2022/11/01 06:11:42;;;;;;;1.77;0.62;;;19.00;75.90;;;;;;2510472;54;20967;-81
2022/11/01 06:14:55;;;;;;;1.48;0.60;;;19.00;75.90;;;;;;2509294;55;20947;-82
2022/11/01 06:17:22;;;;;;;;;;;19.00;75.30;;;;;;2279354;55;21011;-81
2022/11/01 06:19:48;;;;;;;1.20;0.40;;;19.00;74.90;;;;;;2509534;54;20148;-80
2022/11/01 06:22:14;;;;;;;1.95;0.62;;;19.00;75.70;;;;;;2277594;55;20931;-80
2022/11/01 06:24:41;;;;;;;1.55;0.70;;;19.00;75.70;;;;;;2277549;56;22130;-81
2022/11/01 06:27:07;;;;;;;1.20;0.50;;;19.00;75.70;;;;;;2277068;55;21008;-81
2022/11/01 06:29:36;;;;;;;2.03;0.70;;;19.00;75.70;;;;;;2508863;54;21330;-81
2022/11/01 06:32:06;;;;;;;1.98;0.60;;;19.00;75.70;;;;;;2275814;55;20979;-81
2022/11/01 06:34:32;;;;;;;1.90;0.70;;;19.00;75.70;;;;;;2276236;55;20967;-81
2022/11/01 06:36:59;;;;;;;1.75;0.85;;;19.00;75.60;;;;;;2508616;55;20974;-81
2022/11/01 06:39:25;;;;;;;2.22;0.82;;;19.00;75.50;;;;;;2508197;54;20919;-81
2022/11/01 06:41:52;;;;;;;1.10;0.68;;;19.00;75.50;;;;;;2507746;55;21015;-81
2022/11/01 06:44:19;;;;;;;2.33;0.88;;;19.00;75.40;;;;;;2509312;55;21004;-81
2022/11/01 06:46:45;;;;;;;2.30;0.77;;;19.00;75.50;;;;;;2276424;55;21050;-81
2022/11/01 06:49:12;;;;;;;2.12;0.60;;;19.00;75.50;;;;;;2507744;54;20971;-81
2022/11/01 06:51:39;;;;;;;3.95;0.80;;;19.00;75.50;;;;;;2276419;56;20971;-81
2022/11/01 06:54:06;;;;;;;2.10;0.75;;;19.00;75.60;;;;;;2509004;55;20987;-81
2022/11/01 06:56:32;;;;;;;2.33;0.88;;;19.00;75.60;;;;;;2507928;55;21011;-81
2022/11/01 06:58:59;;;;;;;2.45;1.10;;;19.00;75.60;;;;;;2508213;54;21038;-81
2022/11/01 07:01:27;;;;;;;4.30;1.10;;;19.00;75.60;;;;;;2507364;55;20926;-82
2022/11/01 07:03:53;;;;;;;2.70;1.10;;;19.00;75.70;;;;;;2508617;55;20934;-81
2022/11/01 07:06:22;;;;;;;2.60;1.20;;;19.10;75.80;;;;;;2508956;55;21034;-81
2022/11/01 07:08:50;;;;;;;3.17;1.00;;;19.00;75.70;;;;;;2508217;54;22153;-81
2022/11/01 07:11:16;;;;;;;2.05;0.90;;;19.00;75.70;;;;;;2507761;55;21336;-81
2022/11/01 07:13:43;;;;;;;2.25;0.88;;;19.00;75.60;;;;;;2509107;55;21294;-82
2022/11/01 07:16:10;;;;;;;1.55;0.65;;;19.00;75.50;;;;;;2275888;55;21054;-81
2022/11/01 07:18:37;;;;;;;2.53;0.70;;;19.00;75.60;;;;;;2508931;54;21061;-81
2022/11/01 07:21:04;;;;;;;1.85;0.85;;;19.00;75.60;;;;;;2508220;55;22105;-81
2022/11/01 07:23:30;;;;;;;3.42;0.80;;;19.10;75.70;;;;;;2275895;55;20947;-81
2022/11/01 07:25:57;;;;;;;2.12;0.80;;;19.10;75.70;;;;;;2275936;55;20978;-80
2022/11/01 07:28:23;;;;;;;1.65;0.70;;;18.90;75.50;;;;;;2508664;54;20975;-81
2022/11/01 07:30:50;;;;;;;2.20;0.77;;;19.10;75.70;;;;;;2276112;56;20979;-81
2022/11/01 07:33:17;;;;;;;2.35;0.70;;;19.10;75.70;;;;;;2276016;55;21442;-81
2022/11/01 07:35:44;;;;;;;2.10;0.80;;;19.10;75.80;;;;;;2509173;55;20956;-82
2022/11/01 07:38:10;;;;;;;2.12;0.90;;;19.10;75.90;;;;;;2275702;55;20947;-82
2022/11/01 07:40:38;;;;;;;1.98;0.70;;;19.10;75.90;;;;;;2508943;55;20940;-81
2022/11/01 07:43:05;;;;;;;2.10;0.85;;;19.10;75.90;;;;;;2273384;56;21585;-81
2022/11/01 07:45:32;;;;;;;1.95;0.70;;;19.10;75.90;;;;;;2474883;54;21457;-81
2022/11/01 07:48:04;;;;;;;1.87;0.80;;;19.10;75.90;;;;;;2273658;55;20995;-81
2022/11/01 07:50:32;;;;;;;2.75;0.77;;;19.10;75.70;;;;;;2476657;54;20995;-83
2022/11/01 07:53:03;;;;;;;1.80;0.62;;;19.10;75.90;;;;;;2504059;54;20959;-81
2022/11/01 07:55:30;;;;;;;1.85;0.70;;;19.10;75.70;;;;;;2475201;55;21468;-80
2022/11/01 07:57:57;;;;;;;1.83;0.88;;;19.10;75.70;;;;;;2491666;55;20939;-81
2022/11/01 08:00:23;;;;;;;3.28;0.70;;;19.20;75.70;;;;;;2505133;54;20963;-81
2022/11/01 08:02:50;;;;;;;1.50;0.60;;;19.10;75.50;;;;;;2503038;55;21015;-81
2022/11/01 08:05:16;;;;;;;1.87;0.80;;;19.20;75.40;;;;;;2502832;55;20950;-81
2022/11/01 08:07:43;;;;;;;2.03;0.75;;;19.10;75.40;;;;;;2275499;56;20967;-81
2022/11/01 08:10:10;;;;;;;3.33;0.82;;;19.20;75.50;;;;;;2502231;54;20939;-82
2022/11/01 08:12:37;;;;;;;1.27;0.50;;;19.20;75.50;;;;;;2249948;55;21247;-81
2022/11/01 08:15:04;;;;;;;1.80;0.60;;;19.20;75.50;;;;;;2508231;55;20943;-82
2022/11/01 08:17:32;;;;;;;1.92;0.60;;;19.20;75.50;;;;;;2509000;55;21555;-82
2022/11/01 08:19:59;;;;;;;1.67;0.60;;;19.20;75.50;;;;;;2508767;54;21002;-82
2022/11/01 08:22:25;;;;;;;1.73;0.60;;;19.20;75.50;;;;;;2510162;55;21066;-81
2022/11/01 08:24:52;;;;;;;1.30;0.60;;;19.20;75.50;;;;;;2509050;54;20995;-81
2022/11/01 08:27:18;;;;;;;1.55;0.60;;;19.30;75.60;;;;;;2276802;55;21510;-81
2022/11/01 08:29:45;;;;;;;1.62;0.70;;;19.30;75.60;;;;;;2509507;54;20947;-82
2022/11/01 08:32:11;;;;;;;1.37;0.50;;;19.30;75.60;;;;;;2276350;55;20971;-82
2022/11/01 08:34:38;;;;;;;1.23;0.50;;;19.30;75.60;;;;;;2509658;55;21384;-86
2022/11/01 08:37:05;;;;;;;1.27;0.50;;;19.30;75.50;;;;;;2510836;55;20957;-83
2022/11/01 08:39:32;;;;;;;1.35;0.57;;;19.30;75.60;;;;;;2509191;54;20999;-81
2022/11/01 08:41:59;;;;;;;1.33;0.55;;;19.30;75.60;;;;;;2507168;55;21058;-81
2022/11/01 08:44:29;;;;;;;1.60;0.77;;;19.40;75.80;;;;;;2474451;55;21027;-81
2022/11/01 08:46:59;;;;;;;1.80;0.60;;;19.40;75.60;;;;;;2508065;55;21487;-81
2022/11/01 08:49:26;;;;;;;1.98;0.57;;;19.40;75.70;;;;;;2472218;55;20991;-82
2022/11/01 08:51:52;;;;;;;1.77;0.50;;;19.50;75.90;;;;;;2509148;55;21018;-82
2022/11/01 08:54:19;;;;;;;1.90;0.55;;;19.50;75.70;;;;;;2509675;55;20944;-83
2022/11/01 08:56:46;;;;;;;1.60;0.57;;;19.50;75.80;;;;;;2496803;55;21018;-81
2022/11/01 08:59:12;;;;;;;1.58;0.70;;;19.50;75.90;;;;;;2488037;55;21067;-82
2022/11/01 09:01:39;;;;;;;1.37;0.60;;;19.60;76.00;;;;;;2275991;55;20955;-82
2022/11/01 09:04:06;;;;;;;2.60;0.80;;;19.60;75.90;;;;;;2468371;55;20945;-81
2022/11/01 09:06:33;;;;;;;2.30;0.43;;;19.80;76.20;;;;;;2474189;55;21543;-82
2022/11/01 09:09:01;;;;;;;1.25;0.50;;;19.70;76.10;;;;;;2507728;54;20978;-82
2022/11/01 09:11:29;;;;;;;1.42;0.50;;;19.70;76.00;;;;;;2249930;56;21819;-82
2022/11/01 09:13:56;;;;;;;1.75;0.73;;;19.80;75.90;;;;;;2507659;55;20992;-82
2022/11/01 09:16:23;;;;;;;2.12;0.60;;;19.80;75.80;;;;;;2508716;55;21046;-81
2022/11/01 09:18:49;;;;;;;0.73;0.30;;;19.80;75.70;;;;;;2507569;54;20952;-81
2022/11/01 09:21:17;;;;;;;3.78;0.85;;;19.90;75.80;;;;;;2508738;55;20982;-82
2022/11/01 09:23:44;;;;;;;1.55;0.60;;;19.90;75.90;;;;;;2509315;55;21498;-81
2022/11/01 09:26:12;;;;;;;2.22;0.55;;;19.90;75.80;;;;;;2509353;55;20951;-82
2022/11/01 09:28:39;;;;;;;1.92;0.70;;;20.00;75.70;;;;;;2509228;54;21548;-82
2022/11/01 09:31:07;;;;;;;1.25;0.60;;;19.90;75.50;;;;;;2509374;55;21010;-82
2022/11/01 09:33:41;;;;;;;1.90;0.70;;;20.00;75.50;;;;;;2509184;55;21355;-81
2022/11/01 09:36:08;;;;;;;1.55;0.65;;;20.00;75.40;;;;;;2275041;55;20967;-82
2022/11/01 09:38:35;;;;;;;1.73;0.70;;;20.10;75.40;;;;;;2506917;54;21674;-82
2022/11/01 09:41:10;;;;;;;2.30;0.55;;;20.10;75.20;;;;;;2508507;55;20963;-82
2022/11/01 09:43:37;;;;;;;2.87;0.77;;;20.10;75.20;;;;;;2510205;55;21193;-82
2022/11/01 09:46:04;;;;;;;1.45;0.50;;;20.10;75.30;;;;;;2276909;55;20903;-83
2022/11/01 09:48:32;;;;;;;1.67;0.70;;;20.20;75.20;;;;;;2494617;55;20942;-82
2022/11/01 09:51:01;;;;;;;2.92;0.77;;;20.20;75.10;;;;;;2484343;55;21037;-81
2022/11/01 09:53:28;;;;;;;2.90;0.95;;;20.20;75.10;;;;;;2481185;55;21499;-81
2022/11/01 09:56:08;;;;;;;3.05;0.90;;;20.20;75.20;;;;;;2474641;54;21032;-81
2022/11/01 10:00:18;;;;;;;2.53;0.80;;;20.20;74.70;;;;;;2464176;55;20973;-82
2022/11/01 10:03:20;;;;;;;1.67;0.52;;;20.30;74.00;;;;;;2476982;54;21127;-82
2022/11/01 10:06:09;;;;;;;1.40;0.47;;;20.30;74.70;;;;;;2250990;55;21487;-82
2022/11/01 10:10:25;;;;;;;1.92;0.70;;;20.30;74.50;;;;;;2260064;55;20924;-81
2022/11/01 10:13:24;;;;;;;1.80;0.70;;;20.30;74.20;;;;;;2509740;55;20939;-81
2022/11/01 10:16:42;;;;;;;3.33;0.70;;;20.40;75.00;;;;;;2264558;56;21902;-82
2022/11/01 10:19:17;;;;;;;1.17;0.50;;;20.40;75.90;;;;;;2276239;55;20936;-81
2022/11/01 10:21:53;;;;;;;1.12;0.50;;;20.40;74.80;;;;;;2509444;55;20947;-82
2022/11/01 10:24:39;;;;;;;2.00;0.60;;;20.40;75.20;;;;;;2510345;55;20947;-82
2022/11/01 10:27:55;;;;;;;1.50;0.50;;;20.40;74.20;;;;;;2509883;55;20934;-81
2022/11/01 10:30:22;;;;;;;1.90;0.50;;;20.50;74.20;;;;;;2509767;54;20912;-81
2022/11/01 10:33:01;;;;;;;1.45;0.50;;;20.50;75.00;;;;;;2276754;55;20975;-81
2022/11/01 10:35:36;;;;;;;1.60;0.80;;;20.40;74.50;;;;;;2510893;55;20984;-82
2022/11/01 10:38:43;;;;;;;1.67;0.47;;;20.50;74.50;;;;;;2496274;55;21046;-81
2022/11/01 10:41:42;;;;;;;1.40;0.52;;;20.50;73.70;;;;;;2509332;55;20939;-81
2022/11/01 10:45:42;;;;;;;0.82;0.40;;;20.60;74.70;;;;;;2499489;55;20977;-81
2022/11/01 10:48:48;;;;;;;2.83;0.55;;;20.50;73.50;;;;;;2492003;54;20946;-83
2022/11/01 10:51:15;;;;;;;1.10;0.40;;;20.50;74.80;;;;;;2486206;55;21224;-83
2022/11/01 10:53:44;;;;;;;1.92;0.55;;;20.50;74.70;;;;;;2495582;55;21584;-82
2022/11/01 10:56:27;;;;;;;2.53;0.60;;;20.50;74.70;;;;;;2480711;54;20942;-81
2022/11/01 10:59:02;;;;;;;1.25;0.45;;;20.50;74.50;;;;;;2490331;55;21037;-83
2022/11/01 11:01:30;;;;;;;1.92;0.60;;;20.50;74.50;;;;;;2492873;55;20955;-82
2022/11/01 11:04:00;;;;;;;1.52;0.57;;;20.50;74.70;;;;;;2509843;55;21018;-81
2022/11/01 11:06:26;;;;;;;5.90;1.58;;;20.50;74.90;;;;;;2277691;56;20923;-81
2022/11/01 11:08:54;;;;;;;2.55;1.00;;;20.50;74.90;;;;;;2508652;54;21843;-81
2022/11/01 11:11:39;;;;;;;3.17;0.80;;;20.60;75.00;;;;;;2504257;54;20938;-82
2022/11/01 11:14:06;;;;;;;3.85;0.85;;;20.60;74.40;;;;;;2482833;55;20974;-82
2022/11/01 11:16:38;;;;;;;2.00;0.73;;;20.60;75.40;;;;;;2494157;55;20985;-83
2022/11/01 11:19:21;;;;;;;2.03;0.60;;;20.60;76.00;;;;;;2478554;54;21337;-83
2022/11/01 11:21:48;;;;;;;;;;;20.70;75.10;;;;;;2262091;55;21029;-83
2022/11/01 11:24:22;;;;;;;1.98;0.60;;;20.80;74.60;;;;;;2267316;56;20343;-83
2022/11/01 11:26:51;;;;;;;2.67;0.82;;;20.80;75.40;;;;;;2277278;55;20967;-83
2022/11/01 11:29:40;;;;;;;3.45;1.00;;;20.80;75.90;;;;;;2509957;54;20986;-83
2022/11/01 11:32:17;;;;;;;1.95;0.80;;;20.80;75.50;;;;;;2467776;55;20961;-82
2022/11/01 11:34:49;;;;;;;2.10;0.70;;;20.80;75.30;;;;;;2274598;55;20920;-83
2022/11/01 11:37:21;;;;;;;3.35;1.00;;;20.90;75.90;;;;;;2508872;54;21199;-82
2022/11/01 11:40:46;;;;;;;1.70;0.60;;;20.90;75.50;;;;;;2275740;55;20918;-83
2022/11/01 11:43:34;;;;;;;0.93;0.50;;;21.00;75.00;;;;;;2510003;55;20927;-82
2022/11/01 11:46:20;;;;;;;1.58;0.60;;;21.00;75.00;;;;;;2276796;55;21044;-82
2022/11/01 11:49:00;;;;;;;2.60;0.75;;;21.10;74.80;;;;;;2509588;54;20943;-82
2022/11/01 11:51:29;;;;;;;1.87;0.82;;;21.10;75.80;;;;;;2278063;55;21004;-83
2022/11/01 11:54:33;;;;;;;2.87;0.73;;;21.10;76.00;;;;;;2509166;55;21151;-83
2022/11/01 11:57:10;;;;;;;;;;;21.20;75.10;;;;;;2281594;55;20963;-82
2022/11/01 11:59:36;;;;;;;2.00;0.70;;;21.20;74.50;;;;;;2504535;54;20061;-83
2022/11/01 12:02:04;;;;;;;1.42;0.57;;;21.20;75.80;;;;;;2480848;55;20969;-82
2022/11/01 12:04:44;;;;;;;2.40;0.75;;;21.30;75.60;;;;;;2259475;55;21531;-84
2022/11/01 12:07:22;;;;;;;2.20;0.70;;;21.30;74.80;;;;;;2480051;55;21901;-84
2022/11/01 12:09:49;;;;;;;2.05;0.90;;;21.30;74.70;;;;;;2255785;55;21064;-82
2022/11/01 12:12:25;;;;;;;2.42;1.10;;;21.30;75.50;;;;;;2478904;55;21084;-82
2022/11/01 12:14:53;;;;;;;2.22;0.90;;;21.40;75.30;;;;;;2475447;55;20980;-83
2022/11/01 12:18:22;;;;;;;2.08;1.00;;;21.40;75.70;;;;;;2496400;55;20923;-83
2022/11/01 12:20:50;;;;;;;2.47;0.90;;;21.40;74.30;;;;;;2505869;55;21673;-84
2022/11/01 12:23:34;;;;;;;2.60;0.90;;;21.40;75.70;;;;;;2468771;55;20939;-83
2022/11/01 12:26:01;;;;;;;4.32;0.90;;;21.50;75.20;;;;;;2498688;55;20935;-81
2022/11/01 12:28:45;;;;;;;3.67;1.12;;;21.50;75.50;;;;;;2249083;54;20935;-83
2022/11/01 12:31:16;;;;;;;3.22;1.10;;;21.50;73.80;;;;;;2463111;55;21038;-82
2022/11/01 12:34:19;;;;;;;7.22;1.17;;;21.50;73.80;;;;;;2494230;55;21906;-82
2022/11/01 12:37:01;;;;;;;3.25;1.10;;;21.50;72.00;;;;;;2481741;55;20965;-83
2022/11/01 12:41:05;;;;;;;2.80;0.80;;;21.50;72.60;;;;;;2468337;55;21037;-82
2022/11/01 12:43:55;;;;;;;4.03;1.00;;;21.40;71.90;;;;;;2494450;55;22238;-83
2022/11/01 12:48:13;;;;;;;2.20;0.77;;;21.30;71.80;;;;;;2444338;55;21064;-82
2022/11/01 12:50:45;;;;;;;3.28;0.88;;;21.20;70.90;;;;;;2507010;55;20927;-82
2022/11/01 12:53:21;;;;;;;2.15;0.73;;;21.10;72.40;;;;;;2507369;55;21034;-81
2022/11/01 12:55:47;;;;;;;4.12;0.93;;;21.00;72.30;;;;;;2506756;55;20938;-82
2022/11/01 12:58:16;;;;;;;3.53;0.95;;;20.90;72.90;;;;;;2275882;55;20951;-82
2022/11/01 13:10:39;;;;;;;2.45;0.82;;;20.90;73.00;;;;;;2509103;55;20916;-82
2022/11/01 13:13:32;;;;;;;1.42;0.50;;;20.80;71.80;;;;;;2506833;55;20924;-81
2022/11/01 13:19:35;;;;;;;1.87;0.70;;;20.80;72.10;;;;;;2275069;55;20963;-81
2022/11/01 13:22:09;;;;;;;2.85;0.80;;;20.70;72.10;;;;;;2491399;55;21005;-81
2022/11/01 13:24:46;;;;;;;2.15;0.80;;;20.60;73.70;;;;;;2490073;55;20932;-80
2022/11/01 13:27:25;;;;;;;1.90;0.80;;;20.60;73.70;;;;;;2486456;55;20977;-81
2022/11/01 13:30:04;;;;;;;2.28;0.80;;;20.60;73.90;;;;;;2460502;54;20979;-81
2022/11/01 13:34:46;;;;;;;2.72;0.90;;;20.60;74.50;;;;;;2267313;55;21408;-82
2022/11/01 13:38:09;;;;;;;2.42;0.82;;;20.60;73.70;;;;;;2476924;55;21014;-82
2022/11/01 13:40:47;;;;;;;2.67;0.93;;;20.70;74.50;;;;;;2500478;54;20923;-82
2022/11/01 13:43:25;;;;;;;3.03;0.90;;;20.70;75.80;;;;;;2470416;55;21028;-82
2022/11/01 13:48:38;;;;;;;2.58;0.95;;;20.80;76.10;;;;;;2481262;54;20965;-82
2022/11/01 13:53:49;;;;;;;2.35;0.80;;;20.90;75.20;;;;;;2507454;55;20976;-82
2022/11/01 13:56:29;;;;;;;2.50;0.88;;;21.10;74.70;;;;;;2495477;55;21154;-82